Weather at Fortnum Airport

Public forecast

Using degrees Celsius for public forecast. Weather courtesy of forecast.io.

Closest aviation weather report (METAR) to Fortnum Airport

Closest report is Geraldton Airport, 285.5 nm (528.7 km) SW.

2024/05/30 09:00 (retrieved 12 minutes ago)

YGEL 300900Z AUTO 27009KT 9999 // SCT046 BKN061 20/11 Q1019

Closest aviation forecast (TAF) to Fortnum Airport

Forecast is more than 12 hours old.

Closest forecast is Geraldton Airport, 285.5 nm (528.7 km) SW.

2024/05/29 18:00 (retrieved 15 hours ago)

TAF YGEL 291713Z 2918/3012 04008KT 9999 -SHRA SCT040 FM300200 33008KT 9999 -SHRA SCT040 FM301100 03008KT 9999 -SHRA SCT040